← All posts tagged Ижевск

Stiletto

Под окном проехала колонна велопидоров. Вместо традиционной машины ДПС колонну сопровождала скорая (правда с выключенными мигалками). Очень предусмотрительно!

Stiletto

Сегодня мне привезли трэкбол. Ездил за ним в грузовозофф на Новоажимова 13. Промышленные районы ижевска это таки пиздец замечательный. Но я все же нашел съезд к промзоне где находится офис (!) и склад этой компании, прошел проходную промзоны (сидят охранники и записывают фамилию проходящих), побродил по территории, нашел офис, получил бумажки, побродил по территории, покурил, нашел несколько автосервисцентров и, наконец, склад.
Трэкбол игрушка замечательная. Под прыщиксом завелось сразу, все кнопки работают, колесико как средняя кнопка работает, скроллится нормально (про то что перемещения шарика конечно же детектятся правильно я даже не говорю). Самые первые движения конечно были чудовищны, но теперь уже вроде более или менее освоился и двигаю курсор. Точность управления курсором имхо выше чем у мышья (или я просто пока намного более концентрируюсь на этом занятии), но провести прямую линию намного сложнее. Вот.

Stiletto

кстати, насчет дождя:
дождь прошел быстро, но стало прохладнее и влажность выросла. ня!
аэропортовый синоптик кстати упарывается и обещает еще няшноты:
USII 071400Z 00000MPS 9999 SCT033CB BKN100 26/14 Q1013 TEMPO TSRA RMK QFE746/0995 19000060=
TEMPO TSRA"возможен недолго дождь с грозой" фапфапфап